Time;durP1;ratioP1;P1;durP2;ratioP2;P2;SDS_P1;SDS_P2;PMS_P1;PMS_P2;Temp;Humidity;BMP_temperature;BMP_pressure;BME280_temperature;BME280_humidity;BME280_pressure;Samples;Min_cycle;Max_cycle;Signal;HPM_P1;HPM_P2
2020/12/22 00:01:07;;;;;;;6.88;6.18;;;12.80;99.90;;;;;;5060378;28;20039;-68
2020/12/22 00:03:33;;;;;;;6.35;5.85;;;12.80;99.90;;;;;;5063775;28;20055;-70
2020/12/22 00:05:58;;;;;;;6.47;5.88;;;12.80;99.90;;;;;;5068268;28;20124;-68
2020/12/22 00:08:24;;;;;;;6.15;5.65;;;12.90;99.90;;;;;;5061561;28;20025;-68
2020/12/22 00:10:49;;;;;;;6.60;6.05;;;12.90;99.90;;;;;;5062473;28;20098;-67
2020/12/22 00:13:15;;;;;;;6.07;5.60;;;12.80;99.90;;;;;;5059519;28;20028;-67
2020/12/22 00:15:40;;;;;;;6.72;5.47;;;12.80;99.90;;;;;;5057559;28;20074;-68
2020/12/22 00:18:06;;;;;;;7.47;6.28;;;12.90;99.90;;;;;;5065716;28;20020;-68
2020/12/22 00:20:31;;;;;;;5.60;5.20;;;12.80;99.90;;;;;;5068789;28;20036;-68
2020/12/22 00:22:57;;;;;;;5.38;4.95;;;12.90;99.90;;;;;;5067973;28;20024;-67
2020/12/22 00:25:22;;;;;;;4.80;4.50;;;12.90;99.90;;;;;;5069747;28;20028;-67
2020/12/22 00:27:48;;;;;;;5.75;5.13;;;12.90;99.90;;;;;;5057736;28;20031;-67
2020/12/22 00:30:14;;;;;;;5.78;5.28;;;12.90;99.90;;;;;;5061897;28;20042;-67
2020/12/22 00:32:39;;;;;;;4.63;4.22;;;12.80;99.90;;;;;;5063572;28;20059;-68
2020/12/22 00:35:05;;;;;;;5.63;5.15;;;12.80;99.90;;;;;;5066866;28;20032;-67
2020/12/22 00:37:30;;;;;;;5.30;4.90;;;12.90;99.90;;;;;;5066091;28;20473;-68
2020/12/22 00:39:56;;;;;;;4.65;4.32;;;12.90;99.90;;;;;;5058987;28;20024;-67
2020/12/22 00:42:21;;;;;;;5.68;4.30;;;12.90;99.90;;;;;;5062892;28;20049;-68
2020/12/22 00:44:47;;;;;;;4.78;4.38;;;12.80;99.90;;;;;;5065300;28;20031;-67
2020/12/22 00:47:12;;;;;;;4.55;4.25;;;12.90;99.90;;;;;;5070061;28;20025;-68
2020/12/22 00:49:38;;;;;;;6.35;3.72;;;12.90;99.90;;;;;;5058992;28;20036;-68
2020/12/22 00:52:04;;;;;;;4.40;4.05;;;12.80;99.90;;;;;;5058467;28;20029;-67
2020/12/22 00:54:29;;;;;;;2.95;2.75;;;12.90;99.90;;;;;;5066536;28;20361;-67
2020/12/22 00:56:56;;;;;;;3.47;3.28;;;12.80;99.90;;;;;;5067272;28;20052;-67
2020/12/22 00:59:22;;;;;;;2.85;2.65;;;12.80;99.90;;;;;;5061633;28;20033;-68
2020/12/22 01:01:47;;;;;;;2.90;2.70;;;12.80;99.90;;;;;;5068907;28;20512;-68
2020/12/22 01:04:13;;;;;;;3.47;2.22;;;12.90;99.90;;;;;;5054227;28;20414;-67
2020/12/22 01:06:39;;;;;;;2.13;2.03;;;12.80;99.90;;;;;;5062846;28;20536;-67
2020/12/22 01:09:06;;;;;;;3.35;2.15;;;12.80;99.90;;;;;;5057873;28;20401;-67
2020/12/22 01:11:39;;;;;;;1.88;1.77;;;12.80;99.90;;;;;;5068625;28;20113;-68
2020/12/22 01:14:07;;;;;;;2.05;1.92;;;12.80;99.90;;;;;;5070982;28;20035;-68
2020/12/22 01:16:33;;;;;;;2.33;2.13;;;12.80;99.90;;;;;;5060764;28;20094;-67
2020/12/22 01:18:58;;;;;;;3.10;2.08;;;12.80;99.90;;;;;;5065188;28;20028;-67
2020/12/22 01:21:24;;;;;;;2.35;1.52;;;12.80;99.90;;;;;;5069175;28;20104;-67
2020/12/22 01:23:50;;;;;;;1.58;1.48;;;12.80;99.90;;;;;;5058300;28;20028;-68
2020/12/22 01:26:25;;;;;;;4.93;1.73;;;12.80;99.90;;;;;;5070026;28;20033;-68
2020/12/22 01:28:52;;;;;;;1.90;1.80;;;12.80;99.90;;;;;;5065260;28;20102;-68
2020/12/22 01:31:25;;;;;;;2.42;2.28;;;12.80;99.90;;;;;;5059411;28;20502;-70
2020/12/22 01:33:52;;;;;;;2.50;2.20;;;12.90;99.90;;;;;;5064748;28;20086;-68
2020/12/22 01:36:18;;;;;;;2.78;2.58;;;12.90;99.90;;;;;;5070645;28;20037;-68
2020/12/22 01:38:44;;;;;;;2.40;2.30;;;12.90;99.90;;;;;;5074749;28;20035;-68
2020/12/22 01:41:09;;;;;;;3.38;2.35;;;12.90;99.90;;;;;;5058676;28;20120;-68
2020/12/22 01:43:35;;;;;;;2.67;2.47;;;12.90;99.90;;;;;;5069459;28;20119;-68
2020/12/22 01:46:00;;;;;;;3.60;2.00;;;12.90;99.90;;;;;;5069831;28;20032;-68
2020/12/22 01:48:28;;;;;;;2.13;2.03;;;12.90;99.90;;;;;;5073206;28;20036;-68
2020/12/22 01:50:54;;;;;;;3.30;2.63;;;12.90;99.90;;;;;;5062568;28;20037;-68
2020/12/22 01:53:19;;;;;;;2.30;2.20;;;12.90;99.90;;;;;;5061972;28;20035;-68
2020/12/22 01:55:45;;;;;;;3.83;2.15;;;13.00;99.90;;;;;;5072144;28;20024;-68
2020/12/22 01:58:10;;;;;;;1.88;1.77;;;13.00;99.90;;;;;;5067646;28;20032;-68
2020/12/22 02:00:37;;;;;;;2.10;2.00;;;12.90;99.90;;;;;;5075352;28;20042;-68
2020/12/22 02:03:05;;;;;;;2.85;2.20;;;12.90;99.90;;;;;;5063446;28;20104;-68
2020/12/22 02:05:33;;;;;;;1.70;1.60;;;12.90;99.90;;;;;;5069651;28;20036;-68
2020/12/22 02:07:59;;;;;;;1.60;1.50;;;13.00;99.90;;;;;;5059235;28;20049;-68
2020/12/22 02:10:25;;;;;;;1.60;1.50;;;12.90;99.90;;;;;;5059256;28;20382;-68
2020/12/22 02:12:51;;;;;;;1.73;1.42;;;12.90;99.90;;;;;;5071857;28;20487;-68
2020/12/22 02:15:16;;;;;;;1.02;1.02;;;13.00;99.90;;;;;;5060330;28;20502;-68
2020/12/22 02:17:42;;;;;;;2.13;1.35;;;12.90;99.90;;;;;;5063970;28;20388;-68
2020/12/22 02:20:07;;;;;;;3.15;1.20;;;13.00;99.90;;;;;;5061665;28;20028;-68
2020/12/22 02:22:36;;;;;;;1.20;1.10;;;13.00;99.90;;;;;;5066961;28;20048;-68
2020/12/22 02:25:03;;;;;;;4.10;1.20;;;13.00;99.90;;;;;;5070399;28;20091;-68
2020/12/22 02:27:28;;;;;;;1.13;1.02;;;13.00;99.90;;;;;;5067604;28;20330;-68
2020/12/22 02:29:54;;;;;;;1.52;0.82;;;13.00;99.90;;;;;;5069878;28;20121;-68
2020/12/22 02:32:19;;;;;;;3.72;0.82;;;13.00;99.90;;;;;;5067794;28;20040;-68
2020/12/22 02:34:45;;;;;;;2.47;0.98;;;13.00;99.90;;;;;;5062228;28;20072;-68
2020/12/22 02:37:10;;;;;;;1.92;1.70;;;13.00;99.90;;;;;;5059768;28;20031;-67
2020/12/22 02:39:36;;;;;;;1.42;0.95;;;13.00;99.90;;;;;;5072629;28;20025;-68
2020/12/22 02:42:02;;;;;;;1.50;0.80;;;13.00;99.90;;;;;;5060179;28;20122;-68
2020/12/22 02:44:27;;;;;;;0.85;0.70;;;13.00;99.90;;;;;;5065841;28;20186;-67
2020/12/22 02:46:53;;;;;;;2.38;0.95;;;13.00;99.90;;;;;;5064596;28;20029;-67
2020/12/22 02:49:19;;;;;;;1.45;0.70;;;13.00;99.90;;;;;;5063374;28;20036;-67
2020/12/22 02:51:44;;;;;;;1.83;1.00;;;13.00;99.90;;;;;;5071324;28;20035;-68
2020/12/22 02:54:10;;;;;;;1.98;1.05;;;12.90;99.90;;;;;;5068945;28;20031;-67
2020/12/22 02:56:35;;;;;;;3.33;1.02;;;12.90;99.90;;;;;;5061019;28;20028;-67
2020/12/22 02:59:01;;;;;;;4.32;1.20;;;12.90;99.90;;;;;;5074317;28;20388;-67
2020/12/22 03:01:27;;;;;;;1.23;1.10;;;13.00;99.90;;;;;;5074597;28;20031;-67
2020/12/22 03:03:52;;;;;;;3.55;0.88;;;13.00;99.90;;;;;;5065560;28;20029;-67
2020/12/22 03:06:18;;;;;;;5.78;1.17;;;13.00;99.90;;;;;;5057464;28;20013;-67
2020/12/22 03:08:43;;;;;;;2.95;1.10;;;13.00;99.90;;;;;;5063770;28;20059;-67
2020/12/22 03:11:09;;;;;;;2.10;1.08;;;13.00;99.90;;;;;;5068692;28;20491;-67
2020/12/22 03:13:35;;;;;;;2.50;1.05;;;13.10;99.90;;;;;;5072970;28;20029;-67
2020/12/22 03:16:00;;;;;;;5.05;1.50;;;13.10;99.90;;;;;;5068654;28;20106;-67
2020/12/22 03:18:26;;;;;;;2.67;1.23;;;13.10;99.90;;;;;;5062338;28;20029;-67
2020/12/22 03:20:52;;;;;;;4.18;1.88;;;13.00;99.90;;;;;;5061966;28;20032;-67
2020/12/22 03:23:17;;;;;;;1.83;1.35;;;13.00;99.90;;;;;;5066419;28;20411;-67
2020/12/22 03:25:43;;;;;;;3.88;1.58;;;13.00;99.90;;;;;;5066061;28;20103;-67
2020/12/22 03:28:08;;;;;;;4.18;1.67;;;13.00;99.90;;;;;;5071847;28;20108;-67
2020/12/22 03:30:34;;;;;;;2.10;0.90;;;13.00;99.90;;;;;;5062353;28;20033;-67
2020/12/22 03:32:59;;;;;;;5.45;2.00;;;13.00;99.90;;;;;;5067462;28;20074;-67
2020/12/22 03:35:25;;;;;;;6.82;2.58;;;13.00;99.90;;;;;;5073864;28;20471;-68
2020/12/22 03:37:50;;;;;;;9.07;1.80;;;13.00;99.90;;;;;;5062617;28;20021;-67
2020/12/22 03:40:16;;;;;;;6.70;1.92;;;13.00;99.90;;;;;;5064969;28;20048;-67
2020/12/22 03:42:43;;;;;;;3.38;1.08;;;13.00;99.90;;;;;;5063830;28;20067;-67
2020/12/22 03:45:09;;;;;;;8.38;1.35;;;13.00;99.90;;;;;;5066753;28;20438;-67
2020/12/22 03:47:35;;;;;;;3.45;1.10;;;12.90;99.90;;;;;;5058522;28;20469;-67
2020/12/22 03:50:01;;;;;;;5.25;1.33;;;12.90;99.90;;;;;;5074142;28;20083;-69
2020/12/22 03:52:27;;;;;;;7.15;0.93;;;12.90;99.90;;;;;;5059476;28;20067;-67
2020/12/22 03:54:52;;;;;;;5.63;1.30;;;13.00;99.90;;;;;;5063145;28;20049;-66
2020/12/22 03:57:18;;;;;;;5.05;1.48;;;12.90;99.90;;;;;;5062012;28;20524;-66
2020/12/22 03:59:44;;;;;;;4.30;1.33;;;12.90;99.90;;;;;;5070032;28;20150;-66
2020/12/22 04:02:10;;;;;;;5.22;1.45;;;12.90;99.90;;;;;;5080874;28;20047;-67
2020/12/22 04:04:35;;;;;;;5.30;1.20;;;12.90;99.90;;;;;;5073265;28;20036;-68
2020/12/22 04:07:02;;;;;;;5.63;1.88;;;13.00;99.90;;;;;;5072498;28;20024;-67
2020/12/22 04:09:27;;;;;;;5.68;1.45;;;13.00;99.90;;;;;;5076320;28;20036;-67
2020/12/22 04:11:53;;;;;;;10.07;1.98;;;12.90;99.90;;;;;;5081458;28;20025;-67
2020/12/22 04:14:20;;;;;;;6.00;1.20;;;12.90;99.90;;;;;;5074350;28;20361;-67
2020/12/22 04:16:47;;;;;;;5.90;0.80;;;12.90;99.90;;;;;;5068833;28;20044;-67
2020/12/22 04:19:14;;;;;;;6.20;1.25;;;13.00;99.90;;;;;;5065689;28;20036;-67
2020/12/22 04:21:40;;;;;;;4.53;1.20;;;12.90;99.90;;;;;;5059050;28;20166;-67
2020/12/22 04:24:06;;;;;;;6.00;1.17;;;12.90;99.90;;;;;;5061236;28;20545;-66
2020/12/22 04:26:32;;;;;;;4.53;1.00;;;12.90;99.90;;;;;;5069738;28;20045;-66
2020/12/22 04:28:58;;;;;;;8.40;1.15;;;12.90;99.90;;;;;;5071403;28;20616;-66
2020/12/22 04:31:24;;;;;;;4.80;1.13;;;12.90;99.90;;;;;;5063212;28;20114;-66
2020/12/22 04:33:51;;;;;;;10.35;1.73;;;12.90;99.90;;;;;;5070448;28;20388;-66
2020/12/22 04:36:18;;;;;;;3.25;0.90;;;12.90;99.90;;;;;;5082461;28;20107;-66
2020/12/22 04:38:44;;;;;;;9.07;1.55;;;12.90;99.90;;;;;;5059609;28;20036;-66
2020/12/22 04:41:16;;;;;;;5.78;1.30;;;12.90;99.90;;;;;;5079741;28;20407;-66
2020/12/22 04:43:42;;;;;;;6.38;1.45;;;12.90;99.90;;;;;;5061297;28;20028;-66
2020/12/22 04:46:09;;;;;;;3.33;1.20;;;12.90;99.90;;;;;;5059412;28;20067;-67
2020/12/22 04:48:37;;;;;;;4.65;1.45;;;12.90;99.90;;;;;;5075184;28;20437;-66
2020/12/22 04:51:06;;;;;;;6.25;1.35;;;12.90;99.90;;;;;;5070108;28;20488;-66
2020/12/22 04:53:32;;;;;;;7.95;1.33;;;12.90;99.90;;;;;;5070108;28;20063;-66
2020/12/22 04:55:59;;;;;;;4.88;1.15;;;12.80;99.90;;;;;;5065188;28;20036;-66
2020/12/22 04:58:27;;;;;;;8.95;1.73;;;12.80;99.90;;;;;;5067302;28;20031;-67
2020/12/22 05:00:54;;;;;;;11.98;1.80;;;12.80;99.90;;;;;;5072830;28;20477;-66
2020/12/22 05:03:21;;;;;;;11.23;1.60;;;12.80;99.90;;;;;;5058010;28;20043;-66
2020/12/22 05:05:47;;;;;;;12.52;1.65;;;12.80;99.90;;;;;;5067864;28;20033;-66
2020/12/22 05:08:12;;;;;;;7.15;1.58;;;12.80;99.90;;;;;;5069259;28;20034;-66
2020/12/22 05:10:44;;;;;;;8.85;1.40;;;12.80;99.90;;;;;;5064468;28;20067;-66
2020/12/22 05:13:14;;;;;;;17.02;1.58;;;12.80;99.90;;;;;;5066356;28;20063;-66
2020/12/22 05:15:44;;;;;;;3.80;1.42;;;12.80;99.90;;;;;;5065622;28;20638;-66
2020/12/22 05:18:10;;;;;;;8.45;1.50;;;12.80;99.90;;;;;;5062741;28;20066;-66
2020/12/22 05:20:44;;;;;;;8.55;1.27;;;12.80;99.90;;;;;;5060422;28;20489;-66
2020/12/22 05:23:18;;;;;;;6.55;1.23;;;12.90;99.90;;;;;;5064191;28;20038;-66
2020/12/22 05:25:45;;;;;;;10.65;1.20;;;12.80;99.90;;;;;;5065798;28;20043;-66
2020/12/22 05:28:14;;;;;;;7.03;1.67;;;12.90;99.90;;;;;;5068265;28;20357;-67
2020/12/22 05:30:40;;;;;;;9.50;2.28;;;12.90;99.90;;;;;;5060651;28;20072;-66
2020/12/22 05:33:05;;;;;;;7.70;1.55;;;12.90;99.90;;;;;;5062737;28;20122;-66
2020/12/22 05:35:39;;;;;;;5.93;1.38;;;12.90;99.90;;;;;;5059971;28;20033;-66
2020/12/22 05:38:05;;;;;;;14.15;1.75;;;12.80;99.90;;;;;;5065142;28;20068;-67
2020/12/22 05:40:32;;;;;;;7.85;1.20;;;12.80;99.90;;;;;;5083992;28;20360;-67
2020/12/22 05:42:59;;;;;;;9.43;1.20;;;13.10;99.90;;;;;;5061667;28;20044;-66
2020/12/22 05:45:29;;;;;;;8.00;1.60;;;12.90;99.90;;;;;;5074674;28;20077;-66
2020/12/22 05:47:55;;;;;;;;;;;12.80;99.90;;;;;;5069814;28;20028;-67
2020/12/22 05:50:23;;;;;;;10.20;1.38;;;12.80;99.90;;;;;;5073769;28;19917;-67
2020/12/22 05:52:52;;;;;;;5.68;1.38;;;12.80;99.90;;;;;;5071761;28;20047;-66
2020/12/22 05:55:28;;;;;;;13.70;2.10;;;12.80;99.90;;;;;;5077509;28;20042;-66
2020/12/22 05:58:13;;;;;;;6.05;1.80;;;12.80;99.90;;;;;;5078396;28;20024;-66
2020/12/22 06:00:41;;;;;;;8.57;1.75;;;12.80;99.90;;;;;;5066682;28;20483;-67
2020/12/22 06:03:12;;;;;;;16.35;2.42;;;12.80;99.90;;;;;;5062629;28;20025;-67
2020/12/22 06:05:47;;;;;;;6.38;1.42;;;12.80;99.90;;;;;;5075566;28;20103;-66
2020/12/22 06:08:14;;;;;;;13.38;3.60;;;12.70;99.90;;;;;;5072534;28;20020;-66
2020/12/22 06:10:42;;;;;;;7.70;1.52;;;12.70;99.90;;;;;;5083223;28;20484;-67
2020/12/22 06:13:09;;;;;;;6.88;2.22;;;12.70;99.90;;;;;;5076489;28;20028;-67
2020/12/22 06:15:35;;;;;;;7.20;1.20;;;12.70;99.90;;;;;;5081923;28;20027;-66
2020/12/22 06:18:01;;;;;;;5.07;1.33;;;12.70;99.90;;;;;;5076074;28;20070;-67
2020/12/22 06:20:29;;;;;;;10.02;1.63;;;12.70;99.90;;;;;;5083587;28;20089;-67
2020/12/22 06:23:02;;;;;;;11.07;1.30;;;12.70;99.90;;;;;;5080885;28;20024;-67
2020/12/22 06:25:27;;;;;;;8.63;1.33;;;12.70;99.90;;;;;;5071677;28;20070;-67
2020/12/22 06:27:53;;;;;;;14.60;2.63;;;12.60;99.90;;;;;;5083749;28;20476;-67
2020/12/22 06:30:32;;;;;;;10.73;1.75;;;12.60;99.90;;;;;;5080766;28;20048;-67
2020/12/22 06:33:22;;;;;;;10.65;2.15;;;12.50;99.90;;;;;;5081345;28;20357;-68
2020/12/22 06:36:10;;;;;;;8.93;2.10;;;12.50;99.90;;;;;;5075821;28;20062;-67
2020/12/22 06:38:54;;;;;;;8.93;1.67;;;12.50;99.90;;;;;;5073862;28;20032;-67
2020/12/22 06:41:34;;;;;;;7.38;1.65;;;12.50;99.90;;;;;;5077664;28;20080;-67
2020/12/22 06:44:17;;;;;;;11.55;2.03;;;12.50;99.90;;;;;;5091536;28;20031;-67
2020/12/22 06:46:45;;;;;;;13.75;1.67;;;12.60;99.90;;;;;;5088994;28;20500;-67
2020/12/22 06:49:10;;;;;;;9.57;1.90;;;12.50;99.90;;;;;;5079583;28;20056;-67
2020/12/22 06:51:39;;;;;;;13.73;1.92;;;12.60;99.90;;;;;;5084707;28;20060;-67
2020/12/22 06:54:27;;;;;;;12.68;3.30;;;12.60;99.90;;;;;;5076323;28;20024;-68
2020/12/22 06:56:54;;;;;;;8.38;1.75;;;12.60;99.90;;;;;;5087712;28;20013;-67
2020/12/22 06:59:44;;;;;;;6.68;1.48;;;12.50;99.90;;;;;;5088245;28;20047;-67
2020/12/22 07:02:28;;;;;;;11.25;1.60;;;12.50;99.90;;;;;;5081951;28;20035;-67
2020/12/22 07:04:54;;;;;;;7.45;1.23;;;12.50;99.90;;;;;;5075149;28;20028;-67
2020/12/22 07:07:19;;;;;;;12.38;3.25;;;12.60;99.90;;;;;;5080923;28;20089;-67
2020/12/22 07:09:45;;;;;;;7.38;1.08;;;12.50;99.90;;;;;;5081176;28;20039;-67
2020/12/22 07:12:10;;;;;;;7.63;1.80;;;12.50;99.90;;;;;;5076340;28;20033;-67
2020/12/22 07:14:44;;;;;;;7.20;1.30;;;12.50;99.90;;;;;;5071498;28;20115;-67
2020/12/22 07:17:12;;;;;;;13.10;1.75;;;12.50;99.90;;;;;;5082396;28;20020;-67
2020/12/22 07:19:37;;;;;;;14.35;1.83;;;12.40;99.90;;;;;;5078321;28;20475;-67
2020/12/22 07:22:05;;;;;;;9.35;1.77;;;12.40;99.90;;;;;;5084968;28;20027;-67
2020/12/22 07:24:36;;;;;;;6.50;1.73;;;12.40;99.90;;;;;;5076156;28;20055;-67
2020/12/22 07:27:03;;;;;;;11.77;2.28;;;12.40;99.90;;;;;;5082191;28;20023;-67
2020/12/22 07:29:28;;;;;;;9.57;2.03;;;12.40;99.90;;;;;;5079760;28;20032;-69
2020/12/22 07:31:54;;;;;;;7.28;1.52;;;12.30;99.90;;;;;;5090311;28;20020;-69
2020/12/22 07:34:20;;;;;;;9.98;1.58;;;12.30;99.90;;;;;;5083835;28;20030;-68
2020/12/22 07:36:47;;;;;;;14.77;2.05;;;12.30;99.90;;;;;;5075148;28;20535;-68
2020/12/22 07:39:14;;;;;;;7.47;1.92;;;12.30;99.90;;;;;;5081024;28;20020;-67
2020/12/22 07:41:40;;;;;;;10.27;2.00;;;12.30;99.90;;;;;;5083776;28;20756;-66
2020/12/22 07:44:26;;;;;;;15.02;2.92;;;12.30;99.90;;;;;;5083448;28;20047;-69
2020/12/22 07:46:54;;;;;;;13.02;2.10;;;12.20;99.90;;;;;;5089704;28;20028;-68
2020/12/22 07:49:20;;;;;;;21.27;3.22;;;12.30;99.90;;;;;;5078265;28;20142;-68
2020/12/22 07:51:48;;;;;;;19.25;3.67;;;12.30;99.90;;;;;;5087554;28;20473;-68
2020/12/22 07:54:14;;;;;;;15.20;2.45;;;12.30;99.90;;;;;;5084173;28;20046;-68
2020/12/22 07:56:42;;;;;;;17.65;3.00;;;12.30;99.90;;;;;;5082547;28;20028;-68
2020/12/22 07:59:13;;;;;;;14.75;2.63;;;12.30;99.90;;;;;;5082333;28;20027;-68
2020/12/22 08:01:48;;;;;;;;;;;12.30;99.90;;;;;;5082110;28;20453;-65
2020/12/22 08:04:21;;;;;;;17.50;3.55;;;12.30;99.90;;;;;;5083566;28;19916;-66
2020/12/22 08:06:57;;;;;;;15.10;3.13;;;12.30;99.90;;;;;;5071174;28;20060;-66
2020/12/22 08:09:31;;;;;;;19.95;4.00;;;12.40;99.90;;;;;;5062485;28;20037;-68
2020/12/22 08:11:59;;;;;;;19.55;3.70;;;12.30;99.90;;;;;;5069783;28;20099;-68
2020/12/22 08:14:25;;;;;;;16.80;2.55;;;12.30;99.90;;;;;;5062847;28;20024;-67
2020/12/22 08:16:55;;;;;;;22.77;2.90;;;12.40;99.90;;;;;;5058938;28;20036;-66
2020/12/22 08:19:22;;;;;;;12.48;2.40;;;12.40;99.90;;;;;;5067212;28;20033;-65
2020/12/22 08:21:53;;;;;;;22.35;4.05;;;12.40;99.90;;;;;;5075687;28;20367;-66
2020/12/22 08:24:19;;;;;;;30.88;4.25;;;12.40;99.90;;;;;;5074120;28;20028;-66
2020/12/22 08:26:48;;;;;;;18.02;3.10;;;12.40;99.90;;;;;;5074236;28;20086;-66
2020/12/22 08:29:15;;;;;;;24.80;2.92;;;12.50;99.90;;;;;;5061324;28;20061;-66
2020/12/22 08:31:42;;;;;;;23.88;3.25;;;12.50;99.90;;;;;;5065463;28;20029;-66
2020/12/22 08:34:09;;;;;;;14.50;3.05;;;12.50;99.90;;;;;;5068558;28;20037;-66
2020/12/22 08:36:35;;;;;;;17.17;2.92;;;12.50;99.90;;;;;;5068533;28;20016;-66
2020/12/22 08:39:21;;;;;;;14.40;2.58;;;12.50;99.90;;;;;;5079625;28;20036;-66
2020/12/22 08:41:49;;;;;;;26.02;4.63;;;12.50;99.90;;;;;;5059566;28;20073;-66
2020/12/22 08:44:15;;;;;;;18.10;3.72;;;12.40;99.90;;;;;;5082023;28;20040;-66
2020/12/22 08:46:42;;;;;;;16.35;3.97;;;12.40;99.90;;;;;;5088751;28;20028;-66
2020/12/22 08:49:15;;;;;;;24.02;4.00;;;12.40;99.90;;;;;;5081292;28;20020;-66
2020/12/22 08:51:41;;;;;;;20.58;2.80;;;12.40;99.90;;;;;;5064162;28;20048;-67
2020/12/22 08:54:07;;;;;;;20.83;3.33;;;12.40;99.90;;;;;;5074256;28;20374;-66
2020/12/22 08:56:33;;;;;;;30.92;3.92;;;12.40;99.90;;;;;;5067101;28;20089;-66
2020/12/22 08:59:09;;;;;;;13.73;2.70;;;12.40;99.90;;;;;;5058638;28;20073;-66
2020/12/22 09:01:46;;;;;;;23.08;2.97;;;12.30;99.90;;;;;;5064817;28;20029;-66
2020/12/22 09:04:13;;;;;;;21.63;3.42;;;12.30;99.90;;;;;;5065248;28;20100;-67
2020/12/22 09:06:46;;;;;;;21.92;3.88;;;12.30;99.90;;;;;;5060109;28;20029;-66
2020/12/22 09:09:23;;;;;;;25.80;3.78;;;12.30;99.90;;;;;;5053854;28;20051;-66
2020/12/22 09:11:49;;;;;;;21.90;3.08;;;12.30;99.90;;;;;;5064451;28;20029;-66
2020/12/22 09:14:17;;;;;;;17.75;2.70;;;12.20;99.90;;;;;;5071700;28;20036;-66
2020/12/22 09:16:54;;;;;;;20.30;3.38;;;12.20;99.90;;;;;;5077945;28;20028;-66
2020/12/22 09:19:42;;;;;;;28.52;3.85;;;12.20;99.90;;;;;;5088213;28;20070;-67
2020/12/22 09:22:07;;;;;;;15.48;2.95;;;12.20;99.90;;;;;;5081437;28;20024;-67
2020/12/22 09:24:33;;;;;;;17.08;3.20;;;12.10;99.90;;;;;;5091845;28;20024;-67
2020/12/22 09:27:02;;;;;;;16.55;3.42;;;12.10;99.90;;;;;;5091949;28;20057;-66
2020/12/22 09:29:29;;;;;;;24.05;3.65;;;12.10;99.90;;;;;;5086002;28;20032;-67
2020/12/22 09:31:56;;;;;;;19.50;3.22;;;12.10;99.90;;;;;;5089313;28;20020;-67
2020/12/22 09:34:23;;;;;;;26.67;3.72;;;12.10;99.90;;;;;;5084277;28;20032;-67
2020/12/22 09:36:50;;;;;;;27.15;3.85;;;12.00;99.90;;;;;;5083933;28;20025;-67
2020/12/22 09:39:16;;;;;;;24.75;4.10;;;12.00;99.90;;;;;;5076422;28;20025;-67
2020/12/22 09:41:42;;;;;;;26.15;4.05;;;12.00;99.90;;;;;;5088065;28;20055;-66
2020/12/22 09:44:08;;;;;;;21.77;3.88;;;12.00;99.90;;;;;;5089352;28;20058;-66
2020/12/22 09:46:34;;;;;;;24.23;4.18;;;12.00;99.90;;;;;;5088209;28;20536;-67
2020/12/22 09:48:59;;;;;;;18.45;4.43;;;11.90;99.90;;;;;;5085910;28;20544;-67
2020/12/22 09:51:25;;;;;;;15.93;3.35;;;11.90;99.90;;;;;;5089292;28;20028;-67
2020/12/22 09:53:50;;;;;;;13.57;2.58;;;11.80;99.90;;;;;;5085290;28;20064;-67
2020/12/22 09:56:16;;;;;;;16.77;2.78;;;11.80;99.90;;;;;;5087379;28;20020;-67
2020/12/22 09:58:41;;;;;;;9.32;2.20;;;11.80;99.90;;;;;;5087033;28;20024;-67
2020/12/22 10:01:07;;;;;;;16.85;2.65;;;11.80;99.90;;;;;;5088152;28;20162;-67
2020/12/22 10:03:33;;;;;;;15.23;2.65;;;11.70;99.90;;;;;;5086507;28;20016;-67
2020/12/22 10:05:58;;;;;;;17.17;3.33;;;11.70;99.90;;;;;;5088734;28;20098;-68
2020/12/22 10:08:23;;;;;;;9.10;2.40;;;11.60;99.90;;;;;;5086177;28;20031;-68
2020/12/22 10:10:49;;;;;;;8.73;1.80;;;11.60;99.90;;;;;;5080647;28;20088;-67
2020/12/22 10:13:14;;;;;;;4.15;1.10;;;11.60;99.90;;;;;;5087933;28;20510;-68
2020/12/22 10:15:40;;;;;;;3.75;1.48;;;11.60;99.90;;;;;;5075063;28;20029;-67
2020/12/22 10:18:09;;;;;;;6.88;1.38;;;11.60;99.90;;;;;;5077209;28;20016;-67
2020/12/22 10:20:38;;;;;;;6.15;1.38;;;11.50;99.90;;;;;;5072155;28;20373;-66
2020/12/22 10:23:04;;;;;;;2.28;1.05;;;11.40;99.90;;;;;;5074203;28;20098;-67
2020/12/22 10:25:30;;;;;;;7.47;1.35;;;11.40;99.90;;;;;;5073050;28;20082;-66
2020/12/22 10:27:56;;;;;;;3.55;1.00;;;11.40;99.90;;;;;;5077781;28;20020;-67
2020/12/22 10:30:22;;;;;;;8.82;1.60;;;11.30;99.90;;;;;;5086078;28;20047;-67
2020/12/22 10:32:48;;;;;;;4.13;1.33;;;11.30;99.90;;;;;;5079775;28;20021;-66
2020/12/22 10:35:13;;;;;;;5.53;1.92;;;11.30;99.90;;;;;;5081105;28;20021;-66
2020/12/22 10:37:39;;;;;;;6.97;1.90;;;11.20;99.90;;;;;;5089884;28;20020;-69
2020/12/22 10:40:05;;;;;;;4.88;2.55;;;11.20;99.90;;;;;;5081068;28;20540;-67
2020/12/22 10:42:30;;;;;;;7.38;2.38;;;11.10;99.90;;;;;;5087798;28;20396;-67
2020/12/22 10:44:56;;;;;;;5.63;1.98;;;11.10;99.90;;;;;;5087508;28;20020;-67
2020/12/22 10:47:21;;;;;;;6.47;2.92;;;11.10;99.90;;;;;;5079127;28;20550;-67
2020/12/22 10:49:48;;;;;;;10.77;3.85;;;11.00;99.90;;;;;;5084228;28;20073;-67
2020/12/22 10:52:14;;;;;;;10.25;3.70;;;10.90;99.90;;;;;;5084852;28;20422;-67
2020/12/22 10:54:39;;;;;;;12.63;3.85;;;10.90;99.90;;;;;;5088285;28;20036;-67
2020/12/22 10:57:05;;;;;;;12.90;4.00;;;10.90;99.90;;;;;;5087059;28;20349;-68
2020/12/22 10:59:30;;;;;;;7.45;4.40;;;10.80;99.90;;;;;;5089645;28;20020;-68
2020/12/22 11:01:57;;;;;;;8.93;4.30;;;10.80;99.90;;;;;;5088258;28;20024;-68
2020/12/22 11:04:23;;;;;;;12.38;5.45;;;10.80;99.90;;;;;;5089074;28;20028;-68
2020/12/22 11:09:20;;;;;;;9.85;5.43;;;10.80;99.90;;;;;;5072749;28;20029;-68
2020/12/22 11:11:47;;;;;;;15.15;5.93;;;10.70;99.90;;;;;;5074414;28;20032;-68
2020/12/22 11:14:13;;;;;;;12.02;5.82;;;10.70;99.90;;;;;;5074430;28;20494;-68
2020/12/22 11:16:39;;;;;;;14.65;6.05;;;10.70;99.90;;;;;;5081919;28;20024;-69
2020/12/22 11:19:05;;;;;;;11.68;4.78;;;10.70;99.90;;;;;;5090233;28;20236;-68
2020/12/22 11:21:30;;;;;;;11.30;5.28;;;10.80;99.90;;;;;;5083962;28;20468;-68
2020/12/22 11:23:56;;;;;;;15.18;5.55;;;10.80;99.90;;;;;;5084539;28;20020;-68
2020/12/22 11:26:23;;;;;;;10.52;4.90;;;10.80;99.90;;;;;;5089739;28;20102;-68
2020/12/22 11:28:49;;;;;;;9.93;4.82;;;10.80;99.90;;;;;;5077206;28;20028;-66
2020/12/22 11:31:15;;;;;;;12.35;5.32;;;10.80;99.90;;;;;;5084345;28;20060;-66
2020/12/22 11:33:41;;;;;;;13.98;4.40;;;10.80;99.90;;;;;;5073743;28;20054;-67
2020/12/22 11:36:09;;;;;;;9.15;4.63;;;10.80;99.90;;;;;;5072837;28;20028;-68
2020/12/22 11:38:35;;;;;;;7.55;3.80;;;10.80;99.90;;;;;;5074032;28;20318;-68
2020/12/22 11:41:00;;;;;;;14.25;3.70;;;10.90;99.90;;;;;;5076904;28;20046;-68
2020/12/22 11:43:26;;;;;;;8.05;2.78;;;10.90;99.90;;;;;;5072879;28;20028;-68
2020/12/22 11:45:52;;;;;;;11.57;2.30;;;10.90;99.90;;;;;;5073453;28;20074;-67
2020/12/22 11:48:17;;;;;;;6.28;2.30;;;10.90;99.90;;;;;;5073331;28;20116;-67
2020/12/22 11:50:43;;;;;;;14.40;3.63;;;11.00;99.90;;;;;;5084725;28;20036;-67
2020/12/22 11:53:08;;;;;;;5.70;2.08;;;11.00;99.90;;;;;;5088634;28;20028;-68
2020/12/22 11:55:34;;;;;;;12.02;2.47;;;11.00;99.90;;;;;;5081192;28;20024;-68
2020/12/22 11:58:00;;;;;;;9.20;2.50;;;11.10;99.90;;;;;;5072820;28;20039;-67
2020/12/22 12:00:25;;;;;;;10.18;2.67;;;11.00;99.90;;;;;;5073229;28;20438;-68
2020/12/22 12:02:51;;;;;;;7.65;1.90;;;11.10;99.90;;;;;;5075769;28;20020;-68
2020/12/22 12:05:16;;;;;;;8.73;2.95;;;11.10;99.90;;;;;;5072045;28;20048;-67
2020/12/22 12:07:42;;;;;;;6.75;2.28;;;11.00;99.90;;;;;;5072925;28;20464;-68
2020/12/22 12:10:07;;;;;;;17.48;4.47;;;11.00;99.90;;;;;;5078696;28;20400;-67
2020/12/22 12:12:33;;;;;;;9.23;2.70;;;11.00;99.90;;;;;;5072714;28;20461;-67
2020/12/22 12:14:58;;;;;;;8.57;3.60;;;10.90;99.90;;;;;;5077586;28;20468;-68
2020/12/22 12:17:24;;;;;;;12.48;4.13;;;10.90;99.90;;;;;;5083142;28;20171;-68
2020/12/22 12:19:49;;;;;;;8.00;2.85;;;10.80;99.90;;;;;;5072749;28;20035;-68
2020/12/22 12:22:15;;;;;;;8.45;3.13;;;10.80;99.90;;;;;;5070558;28;20106;-67
2020/12/22 12:24:40;;;;;;;10.45;2.70;;;10.80;99.90;;;;;;5071444;28;20582;-67
2020/12/22 12:27:06;;;;;;;16.48;3.42;;;10.80;99.90;;;;;;5072577;28;20126;-67
2020/12/22 12:29:32;;;;;;;6.53;2.15;;;10.80;99.90;;;;;;5072003;28;20452;-68
2020/12/22 12:31:58;;;;;;;6.78;2.53;;;10.90;99.90;;;;;;5071979;28;20029;-68
2020/12/22 12:34:23;;;;;;;7.03;2.40;;;11.00;99.90;;;;;;5072586;28;20469;-68
2020/12/22 12:36:52;;;;;;;6.43;2.42;;;11.10;99.90;;;;;;5072357;28;20465;-68
2020/12/22 12:39:18;;;;;;;6.30;2.35;;;11.20;99.90;;;;;;5070916;28;20577;-68
2020/12/22 12:41:47;;;;;;;12.43;3.45;;;11.30;99.90;;;;;;5072256;28;20049;-68
2020/12/22 12:44:13;;;;;;;5.18;2.60;;;11.40;99.90;;;;;;5071689;28;20036;-68
2020/12/22 12:46:38;;;;;;;6.75;2.70;;;11.40;99.90;;;;;;5057711;28;20534;-68